Station: EBSP - 22/10/2021 08:21Z (il y a 23 minutes)
EBSP 220820Z AUTO 25012KT CAVOK 04/02 Q1017
Vent du 250º - 12 kt
Visibilité > 10 km et plafond haut ou pas de nuages significatifs
Température: +04ºC - Point de rosée: +02ºC - QNH: 1017 hPa